createdAt,value
2022-09-11T00:03:57.248Z,14.20
2022-09-11T00:09:03.704Z,14.20
2022-09-11T00:14:06.738Z,14.20
2022-09-11T00:19:19.173Z,14.20
2022-09-11T00:24:22.091Z,14.10
2022-09-11T00:29:24.965Z,14.10
2022-09-11T00:34:27.832Z,14.10
2022-09-11T00:39:30.945Z,14.10
2022-09-11T00:44:33.720Z,14.00
2022-09-11T00:49:47.916Z,13.90
2022-09-11T00:54:56.703Z,13.90
2022-09-11T01:00:01.587Z,13.90
2022-09-11T01:05:06.288Z,13.80
2022-09-11T01:10:10.877Z,13.70
2022-09-11T01:15:26.902Z,13.60
2022-09-11T01:20:32.626Z,13.40
2022-09-11T01:26:07.438Z,13.40
2022-09-11T01:31:15.883Z,13.20
2022-09-11T01:36:21.343Z,13.20
2022-09-11T01:41:51.386Z,13.10
2022-09-11T01:46:55.116Z,13.00
2022-09-11T01:52:03.103Z,12.90
2022-09-11T01:57:16.136Z,12.80
2022-09-11T02:02:25.381Z,12.70
2022-09-11T02:07:39.906Z,12.60
2022-09-11T02:12:50.845Z,12.60
2022-09-11T02:18:20.154Z,12.50
2022-09-11T02:23:23.096Z,12.60
2022-09-11T02:28:29.374Z,12.50
2022-09-11T02:33:36.176Z,12.50
2022-09-11T02:39:10.802Z,12.50
2022-09-11T02:44:27.160Z,12.50
2022-09-11T02:50:05.535Z,12.60
2022-09-11T02:55:30.333Z,12.60
2022-09-11T03:00:33.491Z,12.70
2022-09-11T03:05:37.342Z,12.60
2022-09-11T03:10:40.582Z,12.70
2022-09-11T03:15:45.785Z,12.80
2022-09-11T03:20:50.085Z,12.80
2022-09-11T03:25:53.279Z,12.90
2022-09-11T03:30:57.831Z,12.90
2022-09-11T03:36:02.210Z,13.00
2022-09-11T03:41:06.177Z,12.90
2022-09-11T03:46:09.341Z,12.90
2022-09-11T03:51:14.975Z,12.90
2022-09-11T03:56:18.136Z,12.90
2022-09-11T04:01:24.388Z,12.90
2022-09-11T04:06:28.342Z,12.90
2022-09-11T04:11:37.246Z,12.90
2022-09-11T04:16:42.242Z,12.90
2022-09-11T04:21:45.569Z,13.00
2022-09-11T04:26:48.786Z,13.00
2022-09-11T04:31:58.631Z,13.10
2022-09-11T04:37:06.301Z,13.10
2022-09-11T04:42:10.707Z,13.10
2022-09-11T04:47:16.322Z,13.10
2022-09-11T04:52:21.183Z,13.10
2022-09-11T04:57:24.198Z,13.20
2022-09-11T05:02:27.157Z,13.10
2022-09-11T05:07:32.282Z,13.20
2022-09-11T05:12:38.821Z,13.20
2022-09-11T05:17:44.734Z,13.30
2022-09-11T05:22:47.841Z,13.30
2022-09-11T05:27:51.175Z,13.40
2022-09-11T05:32:55.383Z,13.50
2022-09-11T05:37:58.364Z,13.50
2022-09-11T05:43:01.380Z,13.40
2022-09-11T05:48:04.536Z,13.40
2022-09-11T05:53:12.798Z,13.60
2022-09-11T05:58:17.657Z,13.60
2022-09-11T06:03:21.267Z,13.70
2022-09-11T06:08:24.184Z,13.80
2022-09-11T06:13:30.633Z,13.90
2022-09-11T06:18:36.084Z,13.80
2022-09-11T06:23:42.296Z,13.90
2022-09-11T06:28:47.954Z,13.90
2022-09-11T06:33:51.532Z,14.00
2022-09-11T06:38:57.363Z,13.90
2022-09-11T06:44:02.507Z,14.20
2022-09-11T06:49:06.714Z,14.20
2022-09-11T06:54:29.659Z,14.40
2022-09-11T06:59:33.950Z,14.50
2022-09-11T07:04:36.864Z,14.50
2022-09-11T07:09:39.890Z,14.60
2022-09-11T07:14:42.945Z,14.70
2022-09-11T07:19:52.774Z,14.60
2022-09-11T07:24:55.782Z,14.50
2022-09-11T07:29:58.892Z,14.50
2022-09-11T07:35:03.337Z,14.50
2022-09-11T07:40:07.047Z,14.40
2022-09-11T07:45:10.627Z,14.40
2022-09-11T07:50:14.185Z,14.60
2022-09-11T07:55:18.860Z,14.70
2022-09-11T08:00:22.424Z,14.70
2022-09-11T08:05:33.640Z,14.70
2022-09-11T08:10:41.016Z,14.80
2022-09-11T08:15:48.691Z,14.90
2022-09-11T08:20:51.758Z,15.00
2022-09-11T08:25:57.512Z,15.00
2022-09-11T08:31:02.045Z,15.00
2022-09-11T08:36:08.672Z,15.10
2022-09-11T08:41:22.696Z,15.10
2022-09-11T08:46:31.322Z,15.50
2022-09-11T08:51:35.577Z,15.70
2022-09-11T08:56:42.134Z,15.70
2022-09-11T09:02:03.815Z,15.70
2022-09-11T09:07:45.183Z,15.70
2022-09-11T09:13:15.391Z,15.70
2022-09-11T09:18:37.433Z,16.00
2022-09-11T09:23:56.181Z,16.10
2022-09-11T09:29:04.281Z,16.30
2022-09-11T09:34:18.826Z,16.40
2022-09-11T09:39:23.748Z,16.40
2022-09-11T09:44:57.962Z,16.20
2022-09-11T09:50:01.071Z,16.10
2022-09-11T09:55:07.838Z,15.90
2022-09-11T10:00:11.702Z,16.00
2022-09-11T10:05:24.553Z,16.00
2022-09-11T10:10:29.094Z,15.80
2022-09-11T10:15:38.871Z,15.40
2022-09-11T10:20:42.312Z,15.30
2022-09-11T10:25:50.052Z,15.30
2022-09-11T10:30:53.638Z,15.00
2022-09-11T10:35:58.587Z,14.90
2022-09-11T10:41:10.410Z,15.00
2022-09-11T10:46:19.452Z,15.00
2022-09-11T10:51:24.984Z,14.90
2022-09-11T10:56:28.277Z,15.00
2022-09-11T11:01:31.368Z,14.90
2022-09-11T11:06:40.016Z,15.30
2022-09-11T11:11:51.818Z,15.10
2022-09-11T11:17:13.487Z,15.10
2022-09-11T11:22:22.549Z,15.00
2022-09-11T11:27:45.047Z,14.90
2022-09-11T11:33:15.334Z,14.90
2022-09-11T11:39:13.848Z,14.90
2022-09-11T11:44:26.063Z,14.70
2022-09-11T11:49:52.414Z,14.80
2022-09-11T11:55:21.484Z,14.80
2022-09-11T12:00:24.466Z,14.80
2022-09-11T12:05:34.053Z,14.80
2022-09-11T12:10:43.225Z,14.80
2022-09-11T12:16:11.553Z,14.90
2022-09-11T12:21:23.753Z,15.00
2022-09-11T12:26:31.738Z,15.00
2022-09-11T12:31:55.306Z,15.00
2022-09-11T12:37:04.872Z,14.80
2022-09-11T12:42:25.632Z,14.90
2022-09-11T12:47:39.097Z,14.90
2022-09-11T12:52:57.985Z,15.20
2022-09-11T12:58:21.465Z,15.30
2022-09-11T13:03:28.275Z,15.50
2022-09-11T13:08:53.289Z,15.90
2022-09-11T13:13:56.276Z,16.30
2022-09-11T13:19:13.611Z,16.40
2022-09-11T13:24:28.455Z,16.20
2022-09-11T13:29:34.308Z,16.40
2022-09-11T13:34:37.534Z,16.30
2022-09-11T13:39:45.041Z,16.40
2022-09-11T13:44:52.232Z,16.40
2022-09-11T13:50:01.605Z,16.40
2022-09-11T13:55:19.756Z,16.30
2022-09-11T14:00:43.099Z,16.30
2022-09-11T14:06:16.485Z,16.40
2022-09-11T14:11:45.849Z,16.30
2022-09-11T14:16:56.228Z,16.10
2022-09-11T14:21:59.592Z,16.00
2022-09-11T14:27:31.706Z,16.10
2022-09-11T14:32:40.793Z,16.00
2022-09-11T14:37:46.111Z,16.10
2022-09-11T14:42:49.481Z,16.10
2022-09-11T14:47:53.646Z,16.20
2022-09-11T14:52:56.640Z,16.20
2022-09-11T14:57:59.637Z,16.20
2022-09-11T15:03:03.701Z,16.50
2022-09-11T15:08:09.091Z,16.90
2022-09-11T15:13:13.497Z,17.10
2022-09-11T15:18:18.567Z,17.20
2022-09-11T15:23:21.635Z,17.30
2022-09-11T15:28:24.814Z,17.60
2022-09-11T15:33:28.314Z,17.80
2022-09-11T15:38:32.346Z,17.80
2022-09-11T15:43:37.478Z,17.80
2022-09-11T15:48:40.680Z,17.80
2022-09-11T15:53:44.873Z,17.90
2022-09-11T15:58:49.049Z,17.80
2022-09-11T16:03:58.148Z,17.60
2022-09-11T16:09:04.788Z,17.80
2022-09-11T16:14:09.048Z,18.00
2022-09-11T16:19:12.027Z,18.10
2022-09-11T16:24:15.986Z,18.20
2022-09-11T16:29:20.484Z,18.10
2022-09-11T16:34:23.855Z,18.10
2022-09-11T16:39:26.884Z,18.00
2022-09-11T16:44:30.003Z,18.00
2022-09-11T16:49:50.303Z,18.10
2022-09-11T16:54:56.710Z,17.70
2022-09-11T17:00:00.224Z,17.60
2022-09-11T17:05:05.084Z,17.60
2022-09-11T17:10:08.727Z,17.50
2022-09-11T17:15:11.842Z,17.30
2022-09-11T17:20:16.425Z,17.10
2022-09-11T17:25:19.408Z,16.90
2022-09-11T17:30:22.430Z,16.60
2022-09-11T17:35:25.476Z,16.40
2022-09-11T17:40:28.434Z,16.10
2022-09-11T17:45:31.555Z,15.90
2022-09-11T17:50:35.645Z,15.70
2022-09-11T17:55:39.283Z,15.50
2022-09-11T18:00:42.262Z,15.30
2022-09-11T18:05:45.876Z,15.10
2022-09-11T18:11:00.494Z,14.90
2022-09-11T18:16:07.542Z,14.60
2022-09-11T18:21:15.256Z,14.40
2022-09-11T18:26:23.899Z,14.30
2022-09-11T18:31:30.094Z,14.20
2022-09-11T18:36:33.542Z,14.10
2022-09-11T18:41:37.225Z,14.00
2022-09-11T18:46:40.923Z,13.90
2022-09-11T18:51:44.264Z,13.80
2022-09-11T18:56:48.809Z,13.60
2022-09-11T19:01:51.824Z,13.60
2022-09-11T19:06:55.180Z,13.50
2022-09-11T19:12:00.259Z,13.50
2022-09-11T19:17:04.516Z,13.50
2022-09-11T19:22:07.466Z,13.40
2022-09-11T19:27:12.124Z,13.40
2022-09-11T19:32:16.566Z,13.30
2022-09-11T19:37:21.172Z,13.30
2022-09-11T19:42:24.209Z,13.30
2022-09-11T19:47:28.449Z,13.30
2022-09-11T19:52:33.156Z,13.30
2022-09-11T19:57:36.296Z,13.30
2022-09-11T20:02:39.279Z,13.30
2022-09-11T20:07:42.190Z,13.40
2022-09-11T20:12:45.147Z,13.50
2022-09-11T20:17:48.112Z,13.50
2022-09-11T20:22:51.152Z,13.60
2022-09-11T20:27:54.093Z,13.60
2022-09-11T20:32:56.995Z,13.60
2022-09-11T20:38:00.464Z,13.60
2022-09-11T20:43:03.523Z,13.60
2022-09-11T20:48:06.520Z,13.60
2022-09-11T20:53:09.488Z,13.70
2022-09-11T20:58:12.487Z,13.60
2022-09-11T21:03:15.403Z,13.60
2022-09-11T21:08:18.669Z,13.60
2022-09-11T21:13:21.615Z,13.50
2022-09-11T21:18:24.623Z,13.50
2022-09-11T21:23:27.636Z,13.50
2022-09-11T21:28:31.129Z,13.40
2022-09-11T21:33:35.463Z,13.30
2022-09-11T21:38:38.565Z,13.30
2022-09-11T21:43:42.034Z,13.20
2022-09-11T21:48:44.951Z,13.10
2022-09-11T21:53:49.656Z,13.00
2022-09-11T21:58:53.799Z,12.90
2022-09-11T22:03:58.196Z,12.80
2022-09-11T22:09:01.141Z,12.80
2022-09-11T22:14:04.655Z,12.70
2022-09-11T22:19:09.561Z,12.60
2022-09-11T22:24:12.531Z,12.50
2022-09-11T22:29:15.570Z,12.40
2022-09-11T22:34:18.440Z,12.30
2022-09-11T22:39:21.871Z,12.30
2022-09-11T22:44:24.815Z,12.30
2022-09-11T22:49:27.887Z,12.20
2022-09-11T22:54:30.818Z,12.10
2022-09-11T22:59:33.704Z,12.10
2022-09-11T23:04:36.679Z,12.10
2022-09-11T23:09:39.690Z,12.10
2022-09-11T23:14:42.637Z,12.00
2022-09-11T23:19:45.625Z,11.90
2022-09-11T23:24:48.486Z,11.90
2022-09-11T23:29:51.528Z,11.90
2022-09-11T23:34:54.488Z,11.80
2022-09-11T23:39:57.461Z,11.80
2022-09-11T23:45:00.363Z,11.80
2022-09-11T23:50:03.535Z,11.80
2022-09-11T23:55:07.457Z,11.80
